Lakeview, California
Current Conditions -  °F | °C
As of 12:58 AM on Saturday 29 Nov 2014 (Local Time) from KRIV Reporting Station
Clear Clear  
Wind Chill: 42°   Ceiling: Unl
Heat Index: 42°   Visibility: 10mi
Dew Point: 21°   Wind: 0mph
Humidity: 44%   Direction: NA
Pressure: 29.92"   Gusts: NA
Location:  33.8416°N, 117.11°W
Report Text: KRIV 290858Z AUTO 00000KT 10SM CLR 05/M06 A2992 RMK AO2 SLP126 T00531061 57010
Loading
Personal Weather Stations






























Interactive Weather Map New forecast layout! Learn more

10-Day Weather Forecast

Advertisements
Track Severe Weather on mobile